Aérodrome :
LOGIN :

S'inscrire | Disclaimer

   EN    FR    IT 

 










Légende :    VFR   VFR Marginal   IFR   IFR Intensif   IFR Très Intensif
Visi : 
Plafond : 
>= 8 km
>= 3000ft
5 à 8 km
1000 à 3000 ft
1500m à 5 km
500 à 1000 ft
800 à 1500m
200 à 500 ft
< 800m
< 200 ft
Symboles :   Orages  Brouillard  Fortes neiges  Fortes précipitations  Vent > 20 kt
SIGMETs :   Divers  Orages  Givrage  Turbulence  Onde Orograph.  Cendres Volcan.







- Altitude de l'aérodrome : 458 ft
- Voir les cartes d'approche


LFSI - St-Dizier

DERNIER METAR :
  • 250430Z AUTO 21006KT 9999 BKN034 13/10 Q1014

METARs EXPIRÉS :
  • 250400Z AUTO 22005KT 9999 OVC035 13/10 Q1014
  • 250330Z AUTO 21005KT 9999 SCT036 12/10 Q1013
  • 250300Z AUTO 21006KT 9999 FEW035 13/10 Q1013
  • 250230Z AUTO 21005KT CAVOK 13/10 Q1013
  • 250200Z AUTO 21006KT CAVOK 13/10 Q1013

TAF TAF LFSI
Valide du 25 à 03h jusqu'au 26 à 03h UTC


250200Z 2503/2603 23005KT 9999 BKN035
TEMPO 2511/2519 23015G25KT 4000 SHRA BKN015TCU
Pas de NOTAMs connus pour ce terrain.



MET'MAP, la Météo Aéronautique d'un coup d'oeil ! - Copyright ORBIFLY Décembre 2007 - Disclaimer

ORBIFLY MET'MAP TEAM :

Programmation & Développement : Alexandra Zaïnal
Conception & Développement : Baudouin d'Aumeries
Co-Programmation & Développement : Marc-Olivier Méhu
Soutien technique & logistique : Manuel Goepfert

Contact : metmap@orbifly.com




SOURCES & CREDITS :

   NOAA